Relevés horaires Oron (Suisse)


Relevés horaires à Oron - Samedi 04 Août 2018
Heure UTC1 Température [°C] Vent [km/h] Hum. [%] Pres.4 [hPa] Visi. [Km] Nébu. [octa] Préc.5 [mm] Cond.
2m. Res. Ros. Dir.2 Vit. Moy. Raf.3
23:00 22.3 22.3 16.1 ENE 11.1 -- -- 68 850 -- -- -- --
22:00 23.5 23.5 15.8 NE 14.8 -- -- 62 850 -- -- -- --
21:00 24.0 24.0 15.8 NNE 14.8 -- 18.5 60 850(0.5/3h) -- -- -- --
20:00 24.7 24.7 15.6 NE 11.1 -- -- 57 850 -- -- -- --
19:00 24.3 24.3 16.8 NE 5.6 -- -- 63 850 -- -- -- --
18:00 25.2 25.2 16.8 E 9.3 -- 35.2 60 850(0.4/3h) -- -- 0/12h
--
17:00 25.0 25.0 16.4 NE 13.0 -- -- 59 850 -- -- -- --
16:00 25.5 25.5 17.7 N 9.3 -- -- 62 850 -- -- -- --
15:00 25.8 25.8 18.2 NNO 13.0 -- 35.2 63 850(0.0/3h) -- -- -- --
14:00 26.8 26.8 17.5 NNO 14.8 -- -- 57 850 -- -- -- --
13:00 28.2 28.2 15.8 N 24.1 -- -- 47 850 -- -- -- --
12:00 29.2 29.2 15.4 N 20.4 -- 37.0 43 850(-0.7/3h) -- -- 0/6h
--
11:00 28.4 28.4 17.1 N 16.7 -- -- 50 850 -- -- -- --
10:00 27.3 27.3 17.8 NNO 13.0 -- -- 56 850 -- -- -- --
09:00 25.4 25.4 17.7 ONO 7.4 -- 13.0 62 850(0.1/3h) -- -- -- --
08:00 24.0 24.0 16.5 NO 5.6 -- -- 63 850 -- -- -- --
07:00 23.3 23.3 16.9 E 3.7 -- -- 67 850 -- -- -- --
06:00 20.6 20.6 16.4 E 3.7 -- 13.0 77 850(0.6/3h) -- -- 0/12h
0/24h
--
05:00 19.9 19.9 15.1 E 7.4 -- -- 74 850 -- -- -- --
04:00 18.9 18.9 14.9 E 11.1 -- -- 78 850 -- -- -- --
03:00 19.6 19.6 15.1 E 9.3 -- 13.0 75 850(-0.1/3h) -- -- -- --
02:00 20.8 20.8 15.1 E 9.3 -- -- 70 850 -- -- -- --
01:00 21.0 21.0 15.3 E 9.3 -- -- 70 850 -- -- -- --
00:00 21.5 21.5 15.5 ENE 9.3 -- 22.2 69 850(-0.6/3h) -- -- 0/6h
--

1 Coordinated Universal Time. Actuellement il est 12:00 locale et 10:00 UTC.

2 Le vent souffle depuis la direction indiquée vers la direction oposée.

3 Les rafales max. sont disponible 40 min après l'heure du relevé.

4 Pour les stations d'altitude (plus de 600m) le géopotentiel du niveau le plus proche de la pression obligatoire est indiqué.

5 Les stations disposant d'un diffuseur peuvent indiquer "trace". Cela signifie que des précipitations ont touchés le sol mais que la quantité est inférieure à 0.1 mm.

Récapitulatif de la journée
Température [°C] Vent [km/h] Ensoleillement4 [h] Precipitations totale5 [mm] Pression [Hpa]
Min1 Max.2 Moy.3 Max. Min Max.
18.9 29.3 0 37.0 7 h 42 min 0 850.0 850.0

1 Température minimale relevée entre 18:00 UTC la veille et 18:00 UTC le jour donné.

2 Température maximale relevée entre 06:00 UTC le jour donné et 06:00 UTC le lendemain.

3 Vent moyen de la journée basé sur les relevés horaires.

4 Ensoleillement en heures relevé entre 06:00 UTC la veille et 06:00 UTC le jour donné.

5 Précipitations totales tombées entre 06:00 UTC la jour donné et 06:00 UTC le lendemain.

Graphiques horaires